sensor_id;sensor_type;location;lat;lon;timestamp;temperature;humidity
38866;DHT22;62686;48.984;8.394;2023-08-17T00:00:00;19.00;99.90
38866;DHT22;62686;48.984;8.394;2023-08-17T00:02:28;19.00;99.90
38866;DHT22;62686;48.984;8.394;2023-08-17T00:04:57;19.00;99.90
38866;DHT22;62686;48.984;8.394;2023-08-17T00:07:25;18.90;99.90
38866;DHT22;62686;48.984;8.394;2023-08-17T00:09:55;18.90;99.90
38866;DHT22;62686;48.984;8.394;2023-08-17T00:12:23;18.80;99.90
38866;DHT22;62686;48.984;8.394;2023-08-17T00:14:52;18.80;99.90
38866;DHT22;62686;48.984;8.394;2023-08-17T00:17:20;18.80;99.90
38866;DHT22;62686;48.984;8.394;2023-08-17T00:19:50;18.80;99.90
38866;DHT22;62686;48.984;8.394;2023-08-17T00:22:18;18.70;99.90
38866;DHT22;62686;48.984;8.394;2023-08-17T00:24:47;18.70;99.90
38866;DHT22;62686;48.984;8.394;2023-08-17T00:27:17;18.60;99.90
38866;DHT22;62686;48.984;8.394;2023-08-17T00:29:45;18.60;99.90
38866;DHT22;62686;48.984;8.394;2023-08-17T00:32:13;18.50;99.90
38866;DHT22;62686;48.984;8.394;2023-08-17T00:34:42;18.50;99.90
38866;DHT22;62686;48.984;8.394;2023-08-17T00:37:10;18.40;99.90
38866;DHT22;62686;48.984;8.394;2023-08-17T00:39:39;18.40;99.90
38866;DHT22;62686;48.984;8.394;2023-08-17T00:42:07;18.40;99.90
38866;DHT22;62686;48.984;8.394;2023-08-17T00:44:37;18.40;99.90
38866;DHT22;62686;48.984;8.394;2023-08-17T00:47:05;18.30;99.90
38866;DHT22;62686;48.984;8.394;2023-08-17T00:49:34;18.30;99.90
38866;DHT22;62686;48.984;8.394;2023-08-17T00:52:03;18.30;99.90
38866;DHT22;62686;48.984;8.394;2023-08-17T00:54:32;18.30;99.90
38866;DHT22;62686;48.984;8.394;2023-08-17T00:57:01;18.20;99.90
38866;DHT22;62686;48.984;8.394;2023-08-17T00:59:33;18.20;99.90
38866;DHT22;62686;48.984;8.394;2023-08-17T01:02:04;18.20;99.90
38866;DHT22;62686;48.984;8.394;2023-08-17T01:04:33;18.20;99.90
38866;DHT22;62686;48.984;8.394;2023-08-17T01:07:02;18.20;99.90
38866;DHT22;62686;48.984;8.394;2023-08-17T01:09:30;18.20;99.90
38866;DHT22;62686;48.984;8.394;2023-08-17T01:12:05;18.10;99.90
38866;DHT22;62686;48.984;8.394;2023-08-17T01:14:42;18.10;99.90
38866;DHT22;62686;48.984;8.394;2023-08-17T01:17:18;18.10;99.90
38866;DHT22;62686;48.984;8.394;2023-08-17T01:19:50;18.10;99.90
38866;DHT22;62686;48.984;8.394;2023-08-17T01:22:21;18.10;99.90
38866;DHT22;62686;48.984;8.394;2023-08-17T01:24:54;18.10;99.90
38866;DHT22;62686;48.984;8.394;2023-08-17T01:27:24;18.10;99.90
38866;DHT22;62686;48.984;8.394;2023-08-17T01:29:53;18.10;99.90
38866;DHT22;62686;48.984;8.394;2023-08-17T01:32:27;18.10;99.90
38866;DHT22;62686;48.984;8.394;2023-08-17T01:35:03;18.10;99.90
38866;DHT22;62686;48.984;8.394;2023-08-17T01:37:35;18.10;99.90
38866;DHT22;62686;48.984;8.394;2023-08-17T01:40:09;18.00;99.90
38866;DHT22;62686;48.984;8.394;2023-08-17T01:42:39;18.00;99.90
38866;DHT22;62686;48.984;8.394;2023-08-17T01:45:08;18.00;99.90
38866;DHT22;62686;48.984;8.394;2023-08-17T01:47:36;17.90;99.90
38866;DHT22;62686;48.984;8.394;2023-08-17T01:50:05;17.90;99.90
38866;DHT22;62686;48.984;8.394;2023-08-17T01:52:34;17.90;99.90
38866;DHT22;62686;48.984;8.394;2023-08-17T01:55:02;17.90;99.90
38866;DHT22;62686;48.984;8.394;2023-08-17T01:57:32;17.80;99.90
38866;DHT22;62686;48.984;8.394;2023-08-17T02:00:03;17.80;99.90
38866;DHT22;62686;48.984;8.394;2023-08-17T02:02:32;17.80;99.90
38866;DHT22;62686;48.984;8.394;2023-08-17T02:05:00;17.80;99.90
38866;DHT22;62686;48.984;8.394;2023-08-17T02:07:28;17.70;99.90
38866;DHT22;62686;48.984;8.394;2023-08-17T02:09:57;17.70;99.90
38866;DHT22;62686;48.984;8.394;2023-08-17T02:12:25;17.70;99.90
38866;DHT22;62686;48.984;8.394;2023-08-17T02:14:55;17.70;99.90
38866;DHT22;62686;48.984;8.394;2023-08-17T02:17:23;17.70;99.90
38866;DHT22;62686;48.984;8.394;2023-08-17T02:19:52;17.60;99.90
38866;DHT22;62686;48.984;8.394;2023-08-17T02:22:20;17.70;99.90
38866;DHT22;62686;48.984;8.394;2023-08-17T02:24:49;17.60;99.90
38866;DHT22;62686;48.984;8.394;2023-08-17T02:27:17;17.60;99.90
38866;DHT22;62686;48.984;8.394;2023-08-17T02:29:45;17.60;99.90
38866;DHT22;62686;48.984;8.394;2023-08-17T02:32:15;17.60;99.90
38866;DHT22;62686;48.984;8.394;2023-08-17T02:34:43;17.60;99.90
38866;DHT22;62686;48.984;8.394;2023-08-17T02:37:12;17.60;99.90
38866;DHT22;62686;48.984;8.394;2023-08-17T02:39:40;17.60;99.90
38866;DHT22;62686;48.984;8.394;2023-08-17T02:44:44;17.60;99.90
38866;DHT22;62686;48.984;8.394;2023-08-17T02:47:14;17.60;99.90
38866;DHT22;62686;48.984;8.394;2023-08-17T02:49:43;17.60;99.90
38866;DHT22;62686;48.984;8.394;2023-08-17T02:52:11;17.60;99.90
38866;DHT22;62686;48.984;8.394;2023-08-17T02:54:39;17.60;99.90
38866;DHT22;62686;48.984;8.394;2023-08-17T02:57:08;17.60;99.90
38866;DHT22;62686;48.984;8.394;2023-08-17T02:59:37;17.60;99.90
38866;DHT22;62686;48.984;8.394;2023-08-17T03:10:34;17.60;99.90
38866;DHT22;62686;48.984;8.394;2023-08-17T04:42:20;17.70;99.90
38866;DHT22;62686;48.984;8.394;2023-08-17T04:44:51;17.70;99.90
38866;DHT22;62686;48.984;8.394;2023-08-17T04:47:19;17.70;99.90
38866;DHT22;62686;48.984;8.394;2023-08-17T04:49:47;17.80;99.90
38866;DHT22;62686;48.984;8.394;2023-08-17T04:52:16;17.80;99.90
38866;DHT22;62686;48.984;8.394;2023-08-17T04:54:44;17.80;99.90
38866;DHT22;62686;48.984;8.394;2023-08-17T04:57:12;18.00;99.90
38866;DHT22;62686;48.984;8.394;2023-08-17T04:59:42;18.00;99.90
38866;DHT22;62686;48.984;8.394;2023-08-17T05:02:10;18.10;99.90
38866;DHT22;62686;48.984;8.394;2023-08-17T05:04:39;18.20;99.90
38866;DHT22;62686;48.984;8.394;2023-08-17T05:07:08;18.30;99.90
38866;DHT22;62686;48.984;8.394;2023-08-17T05:09:36;18.40;99.90
38866;DHT22;62686;48.984;8.394;2023-08-17T05:12:05;18.50;99.90
38866;DHT22;62686;48.984;8.394;2023-08-17T05:14:38;18.50;99.90
38866;DHT22;62686;48.984;8.394;2023-08-17T05:17:08;18.60;99.90
38866;DHT22;62686;48.984;8.394;2023-08-17T07:01:00;21.30;99.90
38866;DHT22;62686;48.984;8.394;2023-08-17T07:03:29;21.50;99.90
38866;DHT22;62686;48.984;8.394;2023-08-17T07:05:57;21.50;99.90
38866;DHT22;62686;48.984;8.394;2023-08-17T07:08:25;21.60;99.90
38866;DHT22;62686;48.984;8.394;2023-08-17T07:10:53;21.60;99.90
38866;DHT22;62686;48.984;8.394;2023-08-17T07:13:21;21.70;99.90
38866;DHT22;62686;48.984;8.394;2023-08-17T07:15:50;21.80;99.90
38866;DHT22;62686;48.984;8.394;2023-08-17T07:18:19;21.80;99.90
38866;DHT22;62686;48.984;8.394;2023-08-17T07:20:48;21.80;99.90
38866;DHT22;62686;48.984;8.394;2023-08-17T07:23:16;21.80;99.90
38866;DHT22;62686;48.984;8.394;2023-08-17T07:25:44;22.00;99.90
38866;DHT22;62686;48.984;8.394;2023-08-17T07:28:13;22.10;99.90
38866;DHT22;62686;48.984;8.394;2023-08-17T07:30:42;22.20;99.90
38866;DHT22;62686;48.984;8.394;2023-08-17T07:33:11;22.30;99.90
38866;DHT22;62686;48.984;8.394;2023-08-17T07:35:41;22.30;99.90
38866;DHT22;62686;48.984;8.394;2023-08-17T07:38:09;22.40;99.90
38866;DHT22;62686;48.984;8.394;2023-08-17T07:40:37;22.40;99.90
38866;DHT22;62686;48.984;8.394;2023-08-17T07:43:06;22.40;99.90
38866;DHT22;62686;48.984;8.394;2023-08-17T07:45:34;22.40;99.90
38866;DHT22;62686;48.984;8.394;2023-08-17T07:48:02;22.60;99.90
38866;DHT22;62686;48.984;8.394;2023-08-17T08:33:17;24.40;99.90
38866;DHT22;62686;48.984;8.394;2023-08-17T08:38:22;24.80;99.90
38866;DHT22;62686;48.984;8.394;2023-08-17T08:40:51;24.80;99.90
38866;DHT22;62686;48.984;8.394;2023-08-17T08:43:29;25.10;99.90
38866;DHT22;62686;48.984;8.394;2023-08-17T08:45:59;25.30;99.90
38866;DHT22;62686;48.984;8.394;2023-08-17T08:48:29;25.60;99.90
38866;DHT22;62686;48.984;8.394;2023-08-17T08:51:00;25.80;99.90
38866;DHT22;62686;48.984;8.394;2023-08-17T08:53:32;26.30;99.90
38866;DHT22;62686;48.984;8.394;2023-08-17T08:56:03;26.40;99.90
38866;DHT22;62686;48.984;8.394;2023-08-17T08:58:33;26.40;99.90
38866;DHT22;62686;48.984;8.394;2023-08-17T09:01:02;26.50;99.90
38866;DHT22;62686;48.984;8.394;2023-08-17T09:03:36;26.90;99.90
38866;DHT22;62686;48.984;8.394;2023-08-17T09:06:05;27.70;99.90
38866;DHT22;62686;48.984;8.394;2023-08-17T09:08:34;28.20;99.90
38866;DHT22;62686;48.984;8.394;2023-08-17T09:11:02;28.40;99.90
38866;DHT22;62686;48.984;8.394;2023-08-17T09:13:31;28.40;99.90
38866;DHT22;62686;48.984;8.394;2023-08-17T09:15:59;27.90;99.90
38866;DHT22;62686;48.984;8.394;2023-08-17T09:18:33;28.10;99.90
38866;DHT22;62686;48.984;8.394;2023-08-17T10:25:00;29.10;99.90
38866;DHT22;62686;48.984;8.394;2023-08-17T10:27:29;29.40;99.90
38866;DHT22;62686;48.984;8.394;2023-08-17T10:29:59;29.30;99.90
38866;DHT22;62686;48.984;8.394;2023-08-17T10:32:34;29.10;99.90
38866;DHT22;62686;48.984;8.394;2023-08-17T10:35:04;29.10;99.90
38866;DHT22;62686;48.984;8.394;2023-08-17T10:37:34;29.70;99.90
38866;DHT22;62686;48.984;8.394;2023-08-17T10:42:54;29.80;99.90
38866;DHT22;62686;48.984;8.394;2023-08-17T10:45:28;28.90;99.90
38866;DHT22;62686;48.984;8.394;2023-08-17T10:48:25;28.30;99.90
38866;DHT22;62686;48.984;8.394;2023-08-17T10:51:01;28.40;99.90
38866;DHT22;62686;48.984;8.394;2023-08-17T10:53:37;29.10;99.90
38866;DHT22;62686;48.984;8.394;2023-08-17T11:01:33;29.80;99.90
38866;DHT22;62686;48.984;8.394;2023-08-17T11:04:12;29.80;99.90
38866;DHT22;62686;48.984;8.394;2023-08-17T11:06:43;30.00;99.90
38866;DHT22;62686;48.984;8.394;2023-08-17T11:09:12;30.20;99.90
38866;DHT22;62686;48.984;8.394;2023-08-17T11:11:52;30.30;99.90
38866;DHT22;62686;48.984;8.394;2023-08-17T11:14:20;30.40;99.90
38866;DHT22;62686;48.984;8.394;2023-08-17T11:16:50;30.50;99.90
38866;DHT22;62686;48.984;8.394;2023-08-17T11:19:18;30.70;99.90
38866;DHT22;62686;48.984;8.394;2023-08-17T11:21:47;30.50;99.90
38866;DHT22;62686;48.984;8.394;2023-08-17T11:24:16;30.20;99.90
38866;DHT22;62686;48.984;8.394;2023-08-17T11:26:44;30.00;99.90
38866;DHT22;62686;48.984;8.394;2023-08-17T11:29:14;29.40;99.90
38866;DHT22;62686;48.984;8.394;2023-08-17T11:31:42;29.60;99.90
38866;DHT22;62686;48.984;8.394;2023-08-17T11:34:17;30.60;99.90
38866;DHT22;62686;48.984;8.394;2023-08-17T11:36:47;30.80;99.90
38866;DHT22;62686;48.984;8.394;2023-08-17T11:39:15;30.30;99.90
38866;DHT22;62686;48.984;8.394;2023-08-17T11:41:47;29.70;99.90
38866;DHT22;62686;48.984;8.394;2023-08-17T11:44:20;29.50;99.90
38866;DHT22;62686;48.984;8.394;2023-08-17T11:46:50;29.30;99.90
38866;DHT22;62686;48.984;8.394;2023-08-17T11:49:20;29.20;99.90
38866;DHT22;62686;48.984;8.394;2023-08-17T11:51:51;30.40;99.90
38866;DHT22;62686;48.984;8.394;2023-08-17T11:54:19;30.50;99.90
38866;DHT22;62686;48.984;8.394;2023-08-17T11:56:48;29.70;99.90
38866;DHT22;62686;48.984;8.394;2023-08-17T12:17:58;28.00;99.90
38866;DHT22;62686;48.984;8.394;2023-08-17T12:20:27;30.30;99.90
38866;DHT22;62686;48.984;8.394;2023-08-17T12:22:58;32.30;99.90
38866;DHT22;62686;48.984;8.394;2023-08-17T12:25:29;34.20;99.90
38866;DHT22;62686;48.984;8.394;2023-08-17T12:28:12;35.40;99.90
38866;DHT22;62686;48.984;8.394;2023-08-17T12:31:10;36.90;99.90
38866;DHT22;62686;48.984;8.394;2023-08-17T12:33:40;36.80;99.90
38866;DHT22;62686;48.984;8.394;2023-08-17T12:36:08;37.10;99.90
38866;DHT22;62686;48.984;8.394;2023-08-17T12:38:41;36.50;99.90
38866;DHT22;62686;48.984;8.394;2023-08-17T12:41:13;36.00;99.90
38866;DHT22;62686;48.984;8.394;2023-08-17T12:43:41;36.00;99.90
38866;DHT22;62686;48.984;8.394;2023-08-17T12:46:10;35.80;99.90
38866;DHT22;62686;48.984;8.394;2023-08-17T12:48:41;35.80;99.90
38866;DHT22;62686;48.984;8.394;2023-08-17T15:13:07;38.00;96.10
38866;DHT22;62686;48.984;8.394;2023-08-17T15:15:37;36.80;96.90
38866;DHT22;62686;48.984;8.394;2023-08-17T15:18:06;35.60;97.70
38866;DHT22;62686;48.984;8.394;2023-08-17T15:20:34;34.80;98.90
38866;DHT22;62686;48.984;8.394;2023-08-17T15:23:03;34.70;99.80
38866;DHT22;62686;48.984;8.394;2023-08-17T15:25:31;34.90;99.90
38866;DHT22;62686;48.984;8.394;2023-08-17T15:28:00;35.50;99.90
38866;DHT22;62686;48.984;8.394;2023-08-17T15:30:30;35.90;99.80
38866;DHT22;62686;48.984;8.394;2023-08-17T15:32:58;35.80;99.20
38866;DHT22;62686;48.984;8.394;2023-08-17T15:35:26;35.10;99.30
38866;DHT22;62686;48.984;8.394;2023-08-17T15:37:55;34.30;99.90
38866;DHT22;62686;48.984;8.394;2023-08-17T15:40:23;33.50;99.90
38866;DHT22;62686;48.984;8.394;2023-08-17T15:42:51;32.60;99.90
38866;DHT22;62686;48.984;8.394;2023-08-17T15:45:20;32.00;99.90
38866;DHT22;62686;48.984;8.394;2023-08-17T15:47:49;31.50;99.90
38866;DHT22;62686;48.984;8.394;2023-08-17T15:50:17;30.90;99.90
38866;DHT22;62686;48.984;8.394;2023-08-17T15:52:46;30.50;99.90
38866;DHT22;62686;48.984;8.394;2023-08-17T15:55:14;30.20;99.90
38866;DHT22;62686;48.984;8.394;2023-08-17T15:57:42;30.00;99.90
38866;DHT22;62686;48.984;8.394;2023-08-17T16:00:11;30.00;99.90
38866;DHT22;62686;48.984;8.394;2023-08-17T16:02:40;29.90;99.90
38866;DHT22;62686;48.984;8.394;2023-08-17T16:05:09;30.00;99.90
38866;DHT22;62686;48.984;8.394;2023-08-17T16:07:38;30.10;99.90
38866;DHT22;62686;48.984;8.394;2023-08-17T16:10:07;30.10;99.90
38866;DHT22;62686;48.984;8.394;2023-08-17T16:12:35;30.10;99.90
38866;DHT22;62686;48.984;8.394;2023-08-17T16:15:09;30.10;99.90
38866;DHT22;62686;48.984;8.394;2023-08-17T16:17:37;30.00;99.90
38866;DHT22;62686;48.984;8.394;2023-08-17T16:20:07;29.90;99.90
38866;DHT22;62686;48.984;8.394;2023-08-17T17:20:02;27.90;99.90
38866;DHT22;62686;48.984;8.394;2023-08-17T17:22:31;27.90;99.90
38866;DHT22;62686;48.984;8.394;2023-08-17T17:25:00;27.80;99.90
38866;DHT22;62686;48.984;8.394;2023-08-17T17:27:30;27.70;99.90
38866;DHT22;62686;48.984;8.394;2023-08-17T17:29:58;27.60;99.90
38866;DHT22;62686;48.984;8.394;2023-08-17T18:42:19;25.30;99.90
38866;DHT22;62686;48.984;8.394;2023-08-17T18:44:47;25.20;99.90
38866;DHT22;62686;48.984;8.394;2023-08-17T18:47:15;25.10;99.90
38866;DHT22;62686;48.984;8.394;2023-08-17T18:49:44;25.00;99.90
38866;DHT22;62686;48.984;8.394;2023-08-17T18:52:12;24.80;99.90
38866;DHT22;62686;48.984;8.394;2023-08-17T18:54:57;24.80;99.90
38866;DHT22;62686;48.984;8.394;2023-08-17T18:57:27;24.60;99.90
38866;DHT22;62686;48.984;8.394;2023-08-17T18:59:56;24.50;99.90
38866;DHT22;62686;48.984;8.394;2023-08-17T19:13:14;24.20;99.90
38866;DHT22;62686;48.984;8.394;2023-08-17T19:15:43;24.10;99.90
38866;DHT22;62686;48.984;8.394;2023-08-17T19:18:12;24.10;99.90
38866;DHT22;62686;48.984;8.394;2023-08-17T19:20:40;24.00;99.90
38866;DHT22;62686;48.984;8.394;2023-08-17T19:23:08;24.10;99.90
38866;DHT22;62686;48.984;8.394;2023-08-17T19:25:37;24.00;99.90
38866;DHT22;62686;48.984;8.394;2023-08-17T19:28:05;24.00;99.90
38866;DHT22;62686;48.984;8.394;2023-08-17T19:30:36;23.90;99.90
38866;DHT22;62686;48.984;8.394;2023-08-17T19:33:06;23.90;99.90
38866;DHT22;62686;48.984;8.394;2023-08-17T19:35:35;23.70;99.90
38866;DHT22;62686;48.984;8.394;2023-08-17T19:38:05;23.70;99.90
38866;DHT22;62686;48.984;8.394;2023-08-17T19:40:33;23.60;99.90
38866;DHT22;62686;48.984;8.394;2023-08-17T19:43:02;23.60;99.90
38866;DHT22;62686;48.984;8.394;2023-08-17T19:45:30;23.50;99.90
38866;DHT22;62686;48.984;8.394;2023-08-17T19:48:00;23.40;99.90
38866;DHT22;62686;48.984;8.394;2023-08-17T19:50:34;23.40;99.90
38866;DHT22;62686;48.984;8.394;2023-08-17T19:53:03;23.30;99.90
38866;DHT22;62686;48.984;8.394;2023-08-17T19:55:33;23.20;99.90
38866;DHT22;62686;48.984;8.394;2023-08-17T19:58:04;23.10;99.90
38866;DHT22;62686;48.984;8.394;2023-08-17T20:00:35;23.10;99.90
38866;DHT22;62686;48.984;8.394;2023-08-17T20:03:07;23.10;99.90
38866;DHT22;62686;48.984;8.394;2023-08-17T20:05:49;23.10;99.90
38866;DHT22;62686;48.984;8.394;2023-08-17T20:08:25;23.20;99.90
38866;DHT22;62686;48.984;8.394;2023-08-17T20:11:07;23.20;99.90
38866;DHT22;62686;48.984;8.394;2023-08-17T20:14:04;23.20;99.90
38866;DHT22;62686;48.984;8.394;2023-08-17T20:16:39;23.20;99.90
38866;DHT22;62686;48.984;8.394;2023-08-17T20:19:09;23.20;99.90
38866;DHT22;62686;48.984;8.394;2023-08-17T20:21:37;23.20;99.90
38866;DHT22;62686;48.984;8.394;2023-08-17T20:24:08;23.20;99.90
38866;DHT22;62686;48.984;8.394;2023-08-17T20:26:40;23.20;99.90
38866;DHT22;62686;48.984;8.394;2023-08-17T20:29:10;23.20;99.90
38866;DHT22;62686;48.984;8.394;2023-08-17T20:31:43;23.10;99.90
38866;DHT22;62686;48.984;8.394;2023-08-17T20:34:14;23.10;99.90
38866;DHT22;62686;48.984;8.394;2023-08-17T20:36:43;23.10;99.90
38866;DHT22;62686;48.984;8.394;2023-08-17T20:42:14;23.10;99.90
38866;DHT22;62686;48.984;8.394;2023-08-17T20:44:43;23.10;99.90
38866;DHT22;62686;48.984;8.394;2023-08-17T20:47:41;23.00;99.90
38866;DHT22;62686;48.984;8.394;2023-08-17T20:50:17;23.00;99.90
38866;DHT22;62686;48.984;8.394;2023-08-17T20:52:49;23.00;99.90
38866;DHT22;62686;48.984;8.394;2023-08-17T20:55:20;23.00;99.90
38866;DHT22;62686;48.984;8.394;2023-08-17T20:57:50;23.00;99.90
38866;DHT22;62686;48.984;8.394;2023-08-17T21:00:22;22.90;99.90
38866;DHT22;62686;48.984;8.394;2023-08-17T21:03:11;22.90;99.90
38866;DHT22;62686;48.984;8.394;2023-08-17T21:05:41;22.80;99.90
38866;DHT22;62686;48.984;8.394;2023-08-17T21:08:09;22.70;99.90
38866;DHT22;62686;48.984;8.394;2023-08-17T21:10:40;22.60;99.90
38866;DHT22;62686;48.984;8.394;2023-08-17T21:13:09;22.60;99.90
38866;DHT22;62686;48.984;8.394;2023-08-17T21:15:37;22.60;99.90
38866;DHT22;62686;48.984;8.394;2023-08-17T21:18:05;22.60;99.90
38866;DHT22;62686;48.984;8.394;2023-08-17T21:20:34;22.60;99.90
38866;DHT22;62686;48.984;8.394;2023-08-17T21:23:03;22.50;99.90
38866;DHT22;62686;48.984;8.394;2023-08-17T21:25:32;22.40;99.90
38866;DHT22;62686;48.984;8.394;2023-08-17T21:28:00;22.40;99.90
38866;DHT22;62686;48.984;8.394;2023-08-17T21:30:28;22.30;99.90
38866;DHT22;62686;48.984;8.394;2023-08-17T21:32:57;22.20;99.90
38866;DHT22;62686;48.984;8.394;2023-08-17T21:35:39;22.10;99.90
38866;DHT22;62686;48.984;8.394;2023-08-17T21:38:10;22.20;99.90
38866;DHT22;62686;48.984;8.394;2023-08-17T21:40:39;22.30;99.90
38866;DHT22;62686;48.984;8.394;2023-08-17T21:43:07;22.30;99.90
38866;DHT22;62686;48.984;8.394;2023-08-17T21:45:35;22.30;99.90
38866;DHT22;62686;48.984;8.394;2023-08-17T21:48:05;22.30;99.90
38866;DHT22;62686;48.984;8.394;2023-08-17T21:50:36;22.20;99.90
38866;DHT22;62686;48.984;8.394;2023-08-17T21:53:04;22.10;99.90
38866;DHT22;62686;48.984;8.394;2023-08-17T21:55:37;22.20;99.90
38866;DHT22;62686;48.984;8.394;2023-08-17T21:58:05;22.10;99.90
38866;DHT22;62686;48.984;8.394;2023-08-17T22:00:34;22.20;99.90
38866;DHT22;62686;48.984;8.394;2023-08-17T22:03:03;22.30;99.90
38866;DHT22;62686;48.984;8.394;2023-08-17T22:05:32;22.30;99.90
38866;DHT22;62686;48.984;8.394;2023-08-17T22:08:00;22.20;99.90
38866;DHT22;62686;48.984;8.394;2023-08-17T22:10:29;22.20;99.90
38866;DHT22;62686;48.984;8.394;2023-08-17T22:43:57;22.70;99.90
38866;DHT22;62686;48.984;8.394;2023-08-17T22:46:26;22.60;99.90
38866;DHT22;62686;48.984;8.394;2023-08-17T22:48:54;22.50;99.90
38866;DHT22;62686;48.984;8.394;2023-08-17T22:51:22;22.30;99.90
38866;DHT22;62686;48.984;8.394;2023-08-17T22:53:51;22.20;99.90
38866;DHT22;62686;48.984;8.394;2023-08-17T22:56:20;22.00;99.90
38866;DHT22;62686;48.984;8.394;2023-08-17T22:58:48;21.80;99.90
38866;DHT22;62686;48.984;8.394;2023-08-17T23:01:17;21.70;99.90
38866;DHT22;62686;48.984;8.394;2023-08-17T23:03:46;21.60;99.90
38866;DHT22;62686;48.984;8.394;2023-08-17T23:06:14;21.50;99.90
38866;DHT22;62686;48.984;8.394;2023-08-17T23:08:43;21.40;99.90
38866;DHT22;62686;48.984;8.394;2023-08-17T23:11:11;21.30;99.90
38866;DHT22;62686;48.984;8.394;2023-08-17T23:13:40;21.20;99.90
38866;DHT22;62686;48.984;8.394;2023-08-17T23:16:08;21.10;99.90
38866;DHT22;62686;48.984;8.394;2023-08-17T23:18:38;21.10;99.90
38866;DHT22;62686;48.984;8.394;2023-08-17T23:21:06;21.00;99.90
38866;DHT22;62686;48.984;8.394;2023-08-17T23:23:35;20.90;99.90
38866;DHT22;62686;48.984;8.394;2023-08-17T23:26:04;20.90;99.90
38866;DHT22;62686;48.984;8.394;2023-08-17T23:28:32;20.90;99.90
38866;DHT22;62686;48.984;8.394;2023-08-17T23:31:01;20.90;99.90
38866;DHT22;62686;48.984;8.394;2023-08-17T23:33:29;20.80;99.90
38866;DHT22;62686;48.984;8.394;2023-08-17T23:35:59;20.80;99.90
38866;DHT22;62686;48.984;8.394;2023-08-17T23:38:28;20.80;99.90
38866;DHT22;62686;48.984;8.394;2023-08-17T23:40:56;20.70;99.90
38866;DHT22;62686;48.984;8.394;2023-08-17T23:43:25;20.60;99.90
38866;DHT22;62686;48.984;8.394;2023-08-17T23:45:53;20.60;99.90
38866;DHT22;62686;48.984;8.394;2023-08-17T23:48:22;20.60;99.90
38866;DHT22;62686;48.984;8.394;2023-08-17T23:50:50;20.50;99.90
38866;DHT22;62686;48.984;8.394;2023-08-17T23:53:19;20.50;99.90
38866;DHT22;62686;48.984;8.394;2023-08-17T23:55:48;20.50;99.90
38866;DHT22;62686;48.984;8.394;2023-08-17T23:58:17;20.50;99.90
